createdAt,value
2022-09-12T00:01:34.023Z,100.00
2022-09-12T00:04:22.508Z,100.00
2022-09-12T00:07:11.878Z,100.00
2022-09-12T00:10:00.630Z,100.00
2022-09-12T00:12:49.385Z,100.00
2022-09-12T00:15:42.206Z,100.00
2022-09-12T00:18:31.812Z,100.00
2022-09-12T00:21:21.559Z,100.00
2022-09-12T00:24:11.579Z,100.00
2022-09-12T00:27:00.331Z,100.00
2022-09-12T00:29:49.291Z,100.00
2022-09-12T00:32:38.672Z,100.00
2022-09-12T00:35:28.232Z,100.00
2022-09-12T00:38:18.968Z,100.00
2022-09-12T00:41:09.019Z,100.00
2022-09-12T00:44:00.031Z,100.00
2022-09-12T00:46:53.066Z,100.00
2022-09-12T00:49:47.191Z,100.00
2022-09-12T00:52:40.268Z,100.00
2022-09-12T00:55:34.020Z,100.00
2022-09-12T00:58:26.297Z,100.00
2022-09-12T01:01:14.954Z,100.00
2022-09-12T01:04:05.684Z,100.00
2022-09-12T01:06:58.343Z,100.00
2022-09-12T01:09:48.108Z,100.00
2022-09-12T01:12:40.461Z,100.00
2022-09-12T01:15:30.055Z,100.00
2022-09-12T01:18:25.186Z,100.00
2022-09-12T01:21:20.673Z,100.00
2022-09-12T01:24:47.588Z,100.00
2022-09-12T01:27:48.223Z,100.00
2022-09-12T01:30:54.182Z,100.00
2022-09-12T01:34:04.080Z,100.00
2022-09-12T01:37:04.255Z,100.00
2022-09-12T01:40:01.851Z,100.00
2022-09-12T01:42:58.561Z,100.00
2022-09-12T01:45:53.891Z,100.00
2022-09-12T01:48:48.545Z,100.00
2022-09-12T01:51:42.231Z,100.00
2022-09-12T01:54:37.844Z,100.00
2022-09-12T01:57:31.805Z,100.00
2022-09-12T02:00:20.918Z,100.00
2022-09-12T02:03:14.672Z,100.00
2022-09-12T02:06:11.514Z,100.00
2022-09-12T02:09:03.580Z,100.00
2022-09-12T02:11:53.620Z,100.00
2022-09-12T02:14:46.235Z,100.00
2022-09-12T02:17:37.888Z,100.00
2022-09-12T02:20:48.617Z,100.00
2022-09-12T02:23:41.210Z,100.00
2022-09-12T02:26:35.062Z,100.00
2022-09-12T02:29:23.834Z,100.00
2022-09-12T02:32:19.757Z,100.00
2022-09-12T02:35:15.149Z,100.00
2022-09-12T02:38:07.342Z,100.00
2022-09-12T02:40:56.565Z,100.00
2022-09-12T02:43:45.426Z,100.00
2022-09-12T02:46:39.255Z,100.00
2022-09-12T02:49:28.468Z,100.00
2022-09-12T02:52:18.043Z,100.00
2022-09-12T02:55:11.101Z,100.00
2022-09-12T02:58:01.428Z,100.00
2022-09-12T03:00:58.256Z,100.00
2022-09-12T03:04:00.509Z,100.00
2022-09-12T03:06:57.274Z,100.00
2022-09-12T03:09:58.699Z,100.00
2022-09-12T03:13:03.840Z,100.00
2022-09-12T03:16:03.920Z,100.00
2022-09-12T03:18:58.700Z,100.00
2022-09-12T03:21:54.809Z,100.00
2022-09-12T03:24:49.787Z,100.00
2022-09-12T03:27:44.887Z,100.00
2022-09-12T03:30:39.027Z,100.00
2022-09-12T03:33:28.542Z,100.00
2022-09-12T03:36:19.961Z,100.00
2022-09-12T03:39:08.104Z,100.00
2022-09-12T03:41:58.036Z,100.00
2022-09-12T03:44:47.041Z,100.00
2022-09-12T03:47:37.649Z,100.00
2022-09-12T03:50:26.600Z,100.00
2022-09-12T03:53:17.390Z,100.00
2022-09-12T03:56:10.607Z,100.00
2022-09-12T03:58:59.625Z,100.00
2022-09-12T04:01:48.381Z,100.00
2022-09-12T04:04:36.728Z,100.00
2022-09-12T04:07:26.481Z,100.00
2022-09-12T04:10:16.329Z,100.00
2022-09-12T04:13:05.192Z,100.00
2022-09-12T04:15:59.933Z,100.00
2022-09-12T04:18:48.421Z,100.00
2022-09-12T04:21:37.448Z,100.00
2022-09-12T04:24:26.620Z,100.00
2022-09-12T04:27:16.799Z,100.00
2022-09-12T04:30:08.371Z,100.00
2022-09-12T04:32:57.177Z,100.00
2022-09-12T04:35:46.749Z,100.00
2022-09-12T04:38:37.346Z,100.00
2022-09-12T04:41:27.892Z,100.00
2022-09-12T04:44:17.317Z,100.00
2022-09-12T04:47:06.274Z,100.00
2022-09-12T04:49:55.031Z,100.00
2022-09-12T04:52:43.788Z,100.00
2022-09-12T04:55:34.796Z,100.00
2022-09-12T04:58:24.368Z,100.00
2022-09-12T05:01:15.221Z,100.00
2022-09-12T05:04:05.157Z,100.00
2022-09-12T05:06:54.525Z,100.00
2022-09-12T05:09:43.486Z,100.00
2022-09-12T05:12:32.331Z,100.00
2022-09-12T05:15:20.585Z,100.00
2022-09-12T05:18:09.760Z,100.00
2022-09-12T05:21:00.369Z,100.00
2022-09-12T05:23:50.947Z,100.00
2022-09-12T05:26:39.294Z,100.00
2022-09-12T05:29:28.455Z,100.00
2022-09-12T05:32:17.210Z,100.00
2022-09-12T05:35:07.722Z,100.00
2022-09-12T05:37:56.562Z,100.00
2022-09-12T05:40:45.913Z,100.00
2022-09-12T05:43:34.896Z,100.00
2022-09-12T05:46:26.692Z,100.00
2022-09-12T05:49:15.899Z,100.00
2022-09-12T05:52:05.050Z,100.00
2022-09-12T05:54:53.807Z,100.00
2022-09-12T05:57:46.085Z,100.00
2022-09-12T06:00:35.100Z,100.00
2022-09-12T06:03:23.959Z,100.00
2022-09-12T06:06:13.302Z,100.00
2022-09-12T06:09:04.340Z,100.00
2022-09-12T06:11:53.301Z,100.00
2022-09-12T06:14:43.692Z,100.00
2022-09-12T06:17:32.447Z,100.00
2022-09-12T06:20:21.407Z,100.00
2022-09-12T06:23:09.956Z,100.00
2022-09-12T06:25:59.121Z,100.00
2022-09-12T06:28:48.492Z,100.00
2022-09-12T06:31:40.114Z,100.00
2022-09-12T06:34:28.661Z,100.00
2022-09-12T06:37:17.214Z,100.00
2022-09-12T06:40:09.833Z,100.00
2022-09-12T06:42:58.825Z,100.00
2022-09-12T06:45:56.468Z,100.00
2022-09-12T06:48:44.833Z,100.00
2022-09-12T06:51:35.867Z,100.00
2022-09-12T06:54:26.129Z,100.00
2022-09-12T06:57:15.091Z,100.00
2022-09-12T07:00:05.986Z,100.00
2022-09-12T07:02:56.511Z,100.00
2022-09-12T07:05:45.654Z,100.00
2022-09-12T07:08:36.585Z,100.00
2022-09-12T07:11:27.675Z,100.00
2022-09-12T07:14:17.040Z,100.00
2022-09-12T07:17:06.452Z,100.00
2022-09-12T07:19:54.760Z,100.00
2022-09-12T07:22:43.430Z,100.00
2022-09-12T07:25:31.859Z,100.00
2022-09-12T07:28:21.232Z,100.00
2022-09-12T07:31:12.437Z,100.00
2022-09-12T07:34:04.677Z,100.00
2022-09-12T07:36:52.825Z,100.00
2022-09-12T07:39:41.596Z,100.00
2022-09-12T07:42:30.941Z,100.00
2022-09-12T07:45:20.719Z,100.00
2022-09-12T07:48:10.093Z,100.00
2022-09-12T07:51:01.347Z,100.00
2022-09-12T07:53:51.494Z,100.00
2022-09-12T07:56:40.657Z,100.00
2022-09-12T07:59:51.628Z,100.00
2022-09-12T08:02:38.131Z,100.00
2022-09-12T08:05:27.381Z,100.00
2022-09-12T08:08:15.954Z,100.00
2022-09-12T08:11:07.319Z,100.00
2022-09-12T08:13:58.159Z,100.00
2022-09-12T08:16:47.748Z,100.00
2022-09-12T08:19:36.709Z,100.00
2022-09-12T08:22:26.077Z,100.00
2022-09-12T08:25:16.676Z,100.00
2022-09-12T08:28:05.432Z,100.00
2022-09-12T08:30:55.603Z,100.00
2022-09-12T08:33:44.622Z,100.00
2022-09-12T08:36:33.746Z,100.00
2022-09-12T08:39:22.311Z,100.00
2022-09-12T08:42:22.446Z,100.00
2022-09-12T08:45:21.926Z,100.00
2022-09-12T08:48:12.894Z,100.00
2022-09-12T08:51:04.488Z,100.00
2022-09-12T08:53:56.808Z,100.00
2022-09-12T08:56:47.110Z,100.00
2022-09-12T08:59:39.777Z,100.00
2022-09-12T09:02:53.846Z,100.00
2022-09-12T09:05:50.933Z,100.00
2022-09-12T09:08:58.122Z,100.00
2022-09-12T09:11:58.346Z,100.00
2022-09-12T09:15:11.674Z,100.00
2022-09-12T09:18:04.503Z,100.00
2022-09-12T09:20:57.868Z,100.00
2022-09-12T09:23:50.609Z,100.00
2022-09-12T09:26:46.974Z,100.00
2022-09-12T09:29:41.232Z,100.00
2022-09-12T09:32:35.046Z,100.00
2022-09-12T09:35:36.326Z,100.00
2022-09-12T09:38:30.211Z,100.00
2022-09-12T09:41:35.804Z,100.00
2022-09-12T09:44:25.056Z,100.00
2022-09-12T09:47:14.542Z,100.00
2022-09-12T09:50:03.820Z,100.00
2022-09-12T09:52:55.127Z,99.51
2022-09-12T09:55:45.037Z,98.70
2022-09-12T09:58:34.888Z,97.74
2022-09-12T10:01:24.503Z,96.91
2022-09-12T10:04:21.955Z,94.42
2022-09-12T10:07:20.562Z,93.86
2022-09-12T10:10:19.655Z,92.50
2022-09-12T10:13:22.292Z,91.43
2022-09-12T10:16:19.285Z,88.59
2022-09-12T10:19:24.061Z,90.44
2022-09-12T10:22:18.750Z,89.22
2022-09-12T10:25:15.602Z,87.27
2022-09-12T10:28:21.155Z,87.87
2022-09-12T10:31:14.872Z,87.08
2022-09-12T10:34:05.153Z,86.53
2022-09-12T10:37:00.029Z,84.94
2022-09-12T10:39:54.910Z,84.46
2022-09-12T10:42:50.119Z,84.46
2022-09-12T10:45:38.917Z,83.23
2022-09-12T10:48:31.464Z,82.91
2022-09-12T10:51:29.723Z,80.16
2022-09-12T10:54:22.070Z,78.97
2022-09-12T10:57:44.261Z,79.59
2022-09-12T11:00:40.821Z,78.86
2022-09-12T11:03:42.518Z,77.22
2022-09-12T11:06:39.170Z,76.44
2022-09-12T11:09:38.422Z,74.37
2022-09-12T11:12:37.005Z,74.16
2022-09-12T11:15:43.005Z,71.33
2022-09-12T11:19:03.464Z,68.96
2022-09-12T11:22:17.820Z,70.62
2022-09-12T11:25:29.265Z,70.99
2022-09-12T11:28:33.246Z,67.54
2022-09-12T11:31:55.358Z,69.57
2022-09-12T11:34:56.400Z,67.66
2022-09-12T11:38:13.623Z,65.17
2022-09-12T11:41:05.950Z,64.25
2022-09-12T11:44:00.368Z,63.00
2022-09-12T11:46:51.957Z,63.14
2022-09-12T11:49:45.513Z,63.11
2022-09-12T11:52:38.211Z,62.81
2022-09-12T11:55:32.575Z,60.80
2022-09-12T11:58:26.363Z,60.83
2022-09-12T12:01:18.116Z,59.14
2022-09-12T12:04:12.549Z,59.15
2022-09-12T12:07:05.762Z,58.32
2022-09-12T12:09:55.809Z,58.23
2022-09-12T12:12:44.765Z,58.23
2022-09-12T12:15:35.500Z,57.32
2022-09-12T12:18:26.948Z,56.82
2022-09-12T12:21:21.400Z,55.67
2022-09-12T12:24:20.194Z,55.84
2022-09-12T12:27:25.089Z,55.69
2022-09-12T12:30:50.646Z,54.84
2022-09-12T12:34:00.824Z,54.91
2022-09-12T12:36:49.843Z,57.92
2022-09-12T12:40:01.423Z,59.74
2022-09-12T12:43:30.943Z,62.13
2022-09-12T12:46:22.073Z,68.38
2022-09-12T12:49:19.562Z,72.02
2022-09-12T12:52:17.808Z,77.88
2022-09-12T12:55:14.986Z,86.31
2022-09-12T12:58:05.679Z,91.72
2022-09-12T13:01:04.312Z,95.14
2022-09-12T13:03:59.085Z,94.28
2022-09-12T13:06:56.152Z,96.22
2022-09-12T13:09:52.273Z,96.92
2022-09-12T13:12:48.396Z,97.13
2022-09-12T13:15:58.769Z,97.27
2022-09-12T13:18:50.253Z,98.26
2022-09-12T13:21:38.860Z,99.16
2022-09-12T13:24:28.355Z,99.12
2022-09-12T13:27:22.971Z,97.72
2022-09-12T13:30:15.592Z,98.99
2022-09-12T13:33:20.910Z,100.00
2022-09-12T13:36:28.274Z,100.00
2022-09-12T13:39:21.732Z,100.00
2022-09-12T13:42:47.324Z,100.00
2022-09-12T13:45:38.980Z,100.00
2022-09-12T13:48:28.142Z,100.00
2022-09-12T13:51:25.329Z,100.00
2022-09-12T13:54:22.633Z,100.00
2022-09-12T13:57:31.104Z,100.00
2022-09-12T14:00:21.729Z,100.00
2022-09-12T14:03:46.347Z,100.00
2022-09-12T14:06:48.276Z,100.00
2022-09-12T14:09:38.395Z,100.00
2022-09-12T14:12:30.409Z,100.00
2022-09-12T14:15:23.232Z,100.00
2022-09-12T14:18:23.426Z,100.00
2022-09-12T14:21:22.449Z,100.00
2022-09-12T14:24:14.256Z,100.00
2022-09-12T14:27:01.599Z,100.00
2022-09-12T14:29:56.119Z,100.00
2022-09-12T14:33:03.067Z,100.00
2022-09-12T14:36:09.030Z,100.00
2022-09-12T14:39:01.665Z,100.00
2022-09-12T14:41:51.422Z,100.00
2022-09-12T14:44:41.207Z,100.00
2022-09-12T14:47:42.275Z,100.00
2022-09-12T14:50:36.671Z,100.00
2022-09-12T14:53:34.947Z,100.00
2022-09-12T14:56:37.829Z,100.00
2022-09-12T14:59:31.688Z,100.00
2022-09-12T15:02:24.938Z,100.00
2022-09-12T15:05:25.839Z,100.00
2022-09-12T15:08:16.039Z,100.00
2022-09-12T15:11:07.489Z,100.00
2022-09-12T15:13:56.369Z,100.00
2022-09-12T15:16:46.175Z,100.00
2022-09-12T15:19:35.927Z,100.00
2022-09-12T15:22:26.077Z,100.00
2022-09-12T15:25:15.484Z,100.00
2022-09-12T15:28:14.276Z,100.00
2022-09-12T15:31:08.164Z,100.00
2022-09-12T15:33:58.135Z,100.00
2022-09-12T15:36:46.689Z,100.00
2022-09-12T15:39:36.260Z,100.00
2022-09-12T15:42:28.762Z,100.00
2022-09-12T15:45:20.526Z,100.00
2022-09-12T15:48:07.848Z,100.00
2022-09-12T15:51:00.822Z,100.00
2022-09-12T15:53:50.322Z,98.08
2022-09-12T15:56:39.444Z,98.32
2022-09-12T15:59:29.014Z,96.14
2022-09-12T16:02:17.572Z,96.09
2022-09-12T16:05:12.251Z,96.03
2022-09-12T16:08:00.608Z,95.02
2022-09-12T16:10:53.242Z,93.69
2022-09-12T16:13:42.211Z,91.42
2022-09-12T16:16:30.676Z,91.08
2022-09-12T16:19:19.532Z,90.58
2022-09-12T16:22:08.888Z,90.16
2022-09-12T16:24:57.440Z,89.16
2022-09-12T16:27:46.607Z,89.64
2022-09-12T16:30:35.974Z,90.31
2022-09-12T16:33:25.961Z,90.24
2022-09-12T16:36:16.155Z,90.64
2022-09-12T16:39:05.928Z,91.04
2022-09-12T16:41:54.688Z,92.38
2022-09-12T16:44:44.058Z,92.54
2022-09-12T16:47:33.630Z,92.76
2022-09-12T16:50:23.235Z,92.37
2022-09-12T16:53:12.782Z,92.75
2022-09-12T16:56:01.531Z,93.32
2022-09-12T16:58:50.174Z,93.83
2022-09-12T17:01:39.217Z,94.86
2022-09-12T17:04:28.407Z,95.53
2022-09-12T17:07:16.962Z,95.75
2022-09-12T17:10:07.948Z,95.87
2022-09-12T17:12:56.728Z,96.52
2022-09-12T17:15:45.509Z,95.95
2022-09-12T17:18:34.029Z,96.54
2022-09-12T17:21:23.147Z,96.15
2022-09-12T17:24:11.541Z,96.34
2022-09-12T17:27:00.499Z,95.87
2022-09-12T17:29:49.255Z,96.32
2022-09-12T17:32:37.806Z,95.80
2022-09-12T17:35:26.560Z,95.94
2022-09-12T17:38:19.348Z,95.53
2022-09-12T17:41:15.426Z,96.11
2022-09-12T17:44:05.363Z,95.37
2022-09-12T17:46:53.663Z,95.05
2022-09-12T17:49:42.007Z,94.88
2022-09-12T17:52:31.600Z,94.11
2022-09-12T17:55:20.544Z,94.17
2022-09-12T17:58:09.505Z,94.19
2022-09-12T18:01:22.255Z,93.93
2022-09-12T18:04:11.179Z,94.22
2022-09-12T18:06:59.939Z,94.24
2022-09-12T18:09:50.279Z,94.48
2022-09-12T18:12:39.288Z,95.24
2022-09-12T18:15:28.659Z,95.53
2022-09-12T18:18:17.415Z,96.33
2022-09-12T18:21:10.628Z,96.24
2022-09-12T18:24:00.227Z,95.96
2022-09-12T18:26:49.622Z,95.67
2022-09-12T18:29:38.171Z,95.63
2022-09-12T18:32:27.744Z,95.75
2022-09-12T18:35:17.533Z,94.93
2022-09-12T18:38:06.692Z,95.50
2022-09-12T18:41:04.784Z,95.22
2022-09-12T18:43:57.590Z,95.16
2022-09-12T18:46:46.151Z,95.29
2022-09-12T18:49:35.625Z,96.11
2022-09-12T18:52:26.236Z,96.72
2022-09-12T18:55:14.580Z,97.20
2022-09-12T18:58:03.340Z,96.71
2022-09-12T19:00:52.348Z,97.14
2022-09-12T19:03:41.964Z,97.36
2022-09-12T19:06:33.870Z,97.85
2022-09-12T19:09:23.269Z,98.34
2022-09-12T19:12:13.868Z,98.76
2022-09-12T19:15:03.858Z,99.41
2022-09-12T19:17:52.607Z,100.00
2022-09-12T19:20:41.567Z,100.00
2022-09-12T19:23:32.300Z,100.00
2022-09-12T19:26:22.098Z,100.00
2022-09-12T19:29:13.475Z,100.00
2022-09-12T19:32:02.449Z,100.00
2022-09-12T19:34:51.077Z,100.00
2022-09-12T19:37:39.424Z,100.00
2022-09-12T19:40:28.179Z,100.00
2022-09-12T19:43:16.735Z,100.00
2022-09-12T19:46:06.557Z,100.00
2022-09-12T19:48:56.493Z,100.00
2022-09-12T19:51:45.450Z,100.00
2022-09-12T19:54:34.208Z,100.00
2022-09-12T19:57:23.782Z,100.00
2022-09-12T20:00:16.019Z,100.00
2022-09-12T20:03:06.002Z,100.00
2022-09-12T20:05:54.960Z,100.00
2022-09-12T20:08:45.287Z,100.00
2022-09-12T20:11:34.116Z,100.00
2022-09-12T20:14:22.458Z,100.00
2022-09-12T20:17:12.031Z,100.00
2022-09-12T20:20:00.787Z,100.00
2022-09-12T20:22:53.023Z,100.00
2022-09-12T20:25:42.801Z,100.00
2022-09-12T20:28:32.373Z,100.00
2022-09-12T20:31:21.193Z,100.00
2022-09-12T20:34:15.046Z,100.00
2022-09-12T20:37:03.353Z,100.00
2022-09-12T20:39:51.985Z,100.00
2022-09-12T20:42:40.857Z,100.00
2022-09-12T20:45:29.411Z,100.00
2022-09-12T20:48:18.599Z,100.00
2022-09-12T20:51:08.151Z,100.00
2022-09-12T20:53:57.725Z,100.00
2022-09-12T20:56:46.686Z,100.00
2022-09-12T20:59:38.872Z,100.00
2022-09-12T21:02:29.283Z,100.00
2022-09-12T21:05:18.890Z,100.00
2022-09-12T21:08:07.441Z,100.00
2022-09-12T21:10:58.245Z,100.00
2022-09-12T21:13:47.002Z,100.00
2022-09-12T21:16:38.141Z,100.00
2022-09-12T21:19:27.118Z,100.00
2022-09-12T21:22:15.724Z,100.00
2022-09-12T21:25:05.098Z,100.00
2022-09-12T21:27:53.844Z,100.00
2022-09-12T21:30:43.830Z,100.00
2022-09-12T21:33:32.993Z,100.00
2022-09-12T21:36:21.748Z,100.00
2022-09-12T21:39:11.528Z,100.00
2022-09-12T21:42:00.088Z,100.00
2022-09-12T21:44:49.037Z,100.00
2022-09-12T21:47:38.615Z,100.00
2022-09-12T21:50:27.574Z,100.00
2022-09-12T21:53:16.941Z,100.00
2022-09-12T21:56:08.816Z,100.00
2022-09-12T21:58:58.346Z,100.00
2022-09-12T22:01:47.361Z,100.00
2022-09-12T22:04:36.468Z,100.00
2022-09-12T22:07:26.657Z,100.00
2022-09-12T22:10:15.213Z,100.00
2022-09-12T22:13:04.982Z,100.00
2022-09-12T22:15:54.378Z,100.00
2022-09-12T22:18:42.906Z,100.00
2022-09-12T22:21:32.069Z,100.00
2022-09-12T22:24:29.474Z,100.00
2022-09-12T22:27:18.385Z,100.00
2022-09-12T22:30:10.191Z,100.00
2022-09-12T22:32:59.172Z,100.00
2022-09-12T22:35:47.504Z,100.00
2022-09-12T22:38:37.342Z,100.00
2022-09-12T22:41:26.258Z,100.00
2022-09-12T22:44:17.182Z,100.00
2022-09-12T22:47:05.340Z,100.00
2022-09-12T22:49:54.161Z,100.00
2022-09-12T22:52:42.505Z,100.00
2022-09-12T22:55:32.287Z,100.00
2022-09-12T22:58:21.659Z,100.00
2022-09-12T23:01:10.232Z,100.00
2022-09-12T23:03:59.375Z,100.00
2022-09-12T23:06:48.658Z,100.00
2022-09-12T23:09:37.961Z,100.00
2022-09-12T23:12:26.042Z,100.00
2022-09-12T23:15:15.005Z,100.00
2022-09-12T23:18:05.256Z,100.00
2022-09-12T23:21:02.178Z,100.00
2022-09-12T23:23:51.099Z,100.00
2022-09-12T23:26:40.060Z,100.00
2022-09-12T23:29:28.816Z,100.00
2022-09-12T23:32:17.570Z,100.00
2022-09-12T23:35:08.781Z,100.00
2022-09-12T23:37:57.946Z,100.00
2022-09-12T23:40:46.430Z,100.00
2022-09-12T23:43:34.840Z,100.00
2022-09-12T23:46:25.234Z,100.00
2022-09-12T23:49:14.605Z,100.00
2022-09-12T23:52:03.974Z,100.00
2022-09-12T23:54:52.933Z,100.00
2022-09-12T23:57:41.482Z,100.00
